sensor_id;sensor_type;location;lat;lon;timestamp;pressure;altitude;pressure_sealevel;temperature;humidity
7966;BME280;4028;43.272;26.932;2023-04-06T00:01:19;98792.84;;;4.48;100.00
7966;BME280;4028;43.272;26.932;2023-04-06T00:03:45;98789.56;;;4.68;100.00
7966;BME280;4028;43.272;26.932;2023-04-06T00:06:11;98745.88;;;4.33;100.00
7966;BME280;4028;43.272;26.932;2023-04-06T00:08:36;98782.28;;;4.60;100.00
7966;BME280;4028;43.272;26.932;2023-04-06T00:11:02;98791.56;;;4.29;100.00
7966;BME280;4028;43.272;26.932;2023-04-06T00:13:27;98788.31;;;4.50;100.00
7966;BME280;4028;43.272;26.932;2023-04-06T00:15:53;98752.75;;;4.23;100.00
7966;BME280;4028;43.272;26.932;2023-04-06T00:18:18;98774.16;;;4.52;100.00
7966;BME280;4028;43.272;26.932;2023-04-06T00:20:44;98787.22;;;4.41;100.00
7966;BME280;4028;43.272;26.932;2023-04-06T00:23:10;98761.53;;;4.46;100.00
7966;BME280;4028;43.272;26.932;2023-04-06T00:25:35;98761.53;;;4.46;100.00
7966;BME280;4028;43.272;26.932;2023-04-06T00:28:01;98767.78;;;4.32;100.00
7966;BME280;4028;43.272;26.932;2023-04-06T00:30:26;98755.31;;;4.36;100.00
7966;BME280;4028;43.272;26.932;2023-04-06T00:32:52;98763.69;;;4.52;100.00
7966;BME280;4028;43.272;26.932;2023-04-06T00:35:17;98759.66;;;4.24;100.00
7966;BME280;4028;43.272;26.932;2023-04-06T00:37:45;98745.97;;;4.21;100.00
7966;BME280;4028;43.272;26.932;2023-04-06T00:40:11;98746.88;;;4.20;100.00
7966;BME280;4028;43.272;26.932;2023-04-06T00:42:36;98747.59;;;4.10;100.00
7966;BME280;4028;43.272;26.932;2023-04-06T00:45:02;98737.22;;;4.09;100.00
7966;BME280;4028;43.272;26.932;2023-04-06T00:47:28;98732.63;;;4.24;100.00
7966;BME280;4028;43.272;26.932;2023-04-06T00:49:54;98747.81;;;4.07;100.00
7966;BME280;4028;43.272;26.932;2023-04-06T00:52:20;98724.28;;;4.18;100.00
7966;BME280;4028;43.272;26.932;2023-04-06T00:54:46;98735.22;;;4.12;100.00
7966;BME280;4028;43.272;26.932;2023-04-06T00:57:12;98729.44;;;4.31;100.00
7966;BME280;4028;43.272;26.932;2023-04-06T00:59:38;98712.69;;;4.45;100.00
7966;BME280;4028;43.272;26.932;2023-04-06T01:02:04;98726.09;;;4.29;100.00
7966;BME280;4028;43.272;26.932;2023-04-06T01:04:30;98709.94;;;4.00;100.00
7966;BME280;4028;43.272;26.932;2023-04-06T01:06:56;98727.56;;;4.09;100.00
7966;BME280;4028;43.272;26.932;2023-04-06T01:09:21;98718.97;;;4.31;100.00
7966;BME280;4028;43.272;26.932;2023-04-06T01:11:47;98717.53;;;4.27;100.00
7966;BME280;4028;43.272;26.932;2023-04-06T01:14:13;98716.56;;;4.28;100.00
7966;BME280;4028;43.272;26.932;2023-04-06T01:16:40;98704.78;;;4.23;100.00
7966;BME280;4028;43.272;26.932;2023-04-06T01:19:09;98694.56;;;4.31;100.00
7966;BME280;4028;43.272;26.932;2023-04-06T01:21:36;98705.28;;;4.39;100.00
7966;BME280;4028;43.272;26.932;2023-04-06T01:24:02;98706.50;;;4.46;100.00
7966;BME280;4028;43.272;26.932;2023-04-06T01:26:27;98695.06;;;4.47;100.00
7966;BME280;4028;43.272;26.932;2023-04-06T01:28:54;98700.53;;;4.44;100.00
7966;BME280;4028;43.272;26.932;2023-04-06T01:31:20;98698.50;;;4.36;100.00
7966;BME280;4028;43.272;26.932;2023-04-06T01:33:46;98695.31;;;4.09;100.00
7966;BME280;4028;43.272;26.932;2023-04-06T01:36:12;98699.47;;;4.00;100.00
7966;BME280;4028;43.272;26.932;2023-04-06T01:38:37;98694.00;;;4.03;100.00
7966;BME280;4028;43.272;26.932;2023-04-06T01:41:03;98696.59;;;4.03;100.00
7966;BME280;4028;43.272;26.932;2023-04-06T01:43:28;98694.88;;;4.15;100.00
7966;BME280;4028;43.272;26.932;2023-04-06T01:45:54;98693.00;;;4.28;100.00
7966;BME280;4028;43.272;26.932;2023-04-06T01:48:19;98697.41;;;4.28;100.00
7966;BME280;4028;43.272;26.932;2023-04-06T01:50:45;98699.84;;;4.07;100.00
7966;BME280;4028;43.272;26.932;2023-04-06T01:53:10;98699.38;;;4.13;100.00
7966;BME280;4028;43.272;26.932;2023-04-06T01:55:36;98699.13;;;4.05;100.00
7966;BME280;4028;43.272;26.932;2023-04-06T01:58:01;98697.34;;;4.05;100.00
7966;BME280;4028;43.272;26.932;2023-04-06T02:00:27;98697.34;;;4.05;100.00
7966;BME280;4028;43.272;26.932;2023-04-06T02:02:53;98695.94;;;4.12;100.00
7966;BME280;4028;43.272;26.932;2023-04-06T02:05:19;98685.75;;;3.97;100.00
7966;BME280;4028;43.272;26.932;2023-04-06T02:07:45;98695.44;;;4.07;100.00
7966;BME280;4028;43.272;26.932;2023-04-06T02:10:14;98694.88;;;4.15;100.00
7966;BME280;4028;43.272;26.932;2023-04-06T02:12:40;98703.44;;;4.17;100.00
7966;BME280;4028;43.272;26.932;2023-04-06T02:15:05;98697.63;;;4.25;100.00
7966;BME280;4028;43.272;26.932;2023-04-06T02:17:31;98712.28;;;4.27;100.00
7966;BME280;4028;43.272;26.932;2023-04-06T02:19:57;98713.41;;;4.01;100.00
7966;BME280;4028;43.272;26.932;2023-04-06T02:22:22;98708.25;;;3.99;100.00
7966;BME280;4028;43.272;26.932;2023-04-06T02:24:48;98717.97;;;4.10;100.00
7966;BME280;4028;43.272;26.932;2023-04-06T02:27:14;98718.34;;;3.92;100.00
7966;BME280;4028;43.272;26.932;2023-04-06T02:29:40;98717.84;;;4.11;100.00
7966;BME280;4028;43.272;26.932;2023-04-06T02:32:06;98712.75;;;4.21;100.00
7966;BME280;4028;43.272;26.932;2023-04-06T02:34:31;98710.16;;;4.32;100.00
7966;BME280;4028;43.272;26.932;2023-04-06T02:36:57;98691.06;;;4.19;100.00
7966;BME280;4028;43.272;26.932;2023-04-06T02:39:22;98711.13;;;4.42;100.00
7966;BME280;4028;43.272;26.932;2023-04-06T02:41:48;98711.13;;;4.42;100.00
7966;BME280;4028;43.272;26.932;2023-04-06T02:44:13;98706.84;;;4.41;100.00
7966;BME280;4028;43.272;26.932;2023-04-06T02:46:39;98711.25;;;4.41;100.00
7966;BME280;4028;43.272;26.932;2023-04-06T02:49:05;98698.84;;;4.32;100.00
7966;BME280;4028;43.272;26.932;2023-04-06T02:51:32;98698.50;;;4.36;100.00
7966;BME280;4028;43.272;26.932;2023-04-06T02:53:58;98705.28;;;4.39;100.00
7966;BME280;4028;43.272;26.932;2023-04-06T02:56:24;98704.34;;;4.40;100.00
7966;BME280;4028;43.272;26.932;2023-04-06T02:58:50;98712.94;;;4.42;100.00
7966;BME280;4028;43.272;26.932;2023-04-06T03:01:15;98708.66;;;4.41;100.00
7966;BME280;4028;43.272;26.932;2023-04-06T03:03:41;98706.03;;;4.41;100.00
7966;BME280;4028;43.272;26.932;2023-04-06T03:06:06;98706.94;;;4.40;100.00
7966;BME280;4028;43.272;26.932;2023-04-06T03:08:32;98695.41;;;4.31;100.00
7966;BME280;4028;43.272;26.932;2023-04-06T03:10:57;98653.53;;;4.07;100.00
7966;BME280;4028;43.272;26.932;2023-04-06T03:13:23;98698.56;;;4.12;100.00
7966;BME280;4028;43.272;26.932;2023-04-06T03:15:48;98702.38;;;4.20;100.00
7966;BME280;4028;43.272;26.932;2023-04-06T03:18:14;98701.81;;;4.27;100.00
7966;BME280;4028;43.272;26.932;2023-04-06T03:20:40;98712.06;;;4.30;100.00
7966;BME280;4028;43.272;26.932;2023-04-06T03:23:05;98697.19;;;4.31;100.00
7966;BME280;4028;43.272;26.932;2023-04-06T03:25:31;98712.28;;;4.27;100.00
7966;BME280;4028;43.272;26.932;2023-04-06T03:27:56;98713.13;;;4.28;100.00
7966;BME280;4028;43.272;26.932;2023-04-06T03:30:22;98712.28;;;4.27;100.00
7966;BME280;4028;43.272;26.932;2023-04-06T03:32:47;98704.00;;;4.09;100.00
7966;BME280;4028;43.272;26.932;2023-04-06T03:35:13;98710.59;;;4.15;100.00
7966;BME280;4028;43.272;26.932;2023-04-06T03:37:38;98715.25;;;4.23;100.00
7966;BME280;4028;43.272;26.932;2023-04-06T03:40:06;98693.31;;;4.12;100.00
7966;BME280;4028;43.272;26.932;2023-04-06T03:42:31;98722.44;;;4.32;100.00
7966;BME280;4028;43.272;26.932;2023-04-06T03:44:58;98716.22;;;4.33;100.00
7966;BME280;4028;43.272;26.932;2023-04-06T03:47:24;98718.16;;;4.31;100.00
7966;BME280;4028;43.272;26.932;2023-04-06T03:49:49;98725.16;;;4.30;100.00
7966;BME280;4028;43.272;26.932;2023-04-06T03:52:15;98703.94;;;4.22;100.00
7966;BME280;4028;43.272;26.932;2023-04-06T03:54:40;98725.50;;;4.26;100.00
7966;BME280;4028;43.272;26.932;2023-04-06T03:57:06;98730.28;;;4.32;100.00
7966;BME280;4028;43.272;26.932;2023-04-06T03:59:31;98729.44;;;4.31;100.00
7966;BME280;4028;43.272;26.932;2023-04-06T04:01:57;98734.34;;;4.36;100.00
7966;BME280;4028;43.272;26.932;2023-04-06T04:04:22;98722.91;;;4.37;100.00
7966;BME280;4028;43.272;26.932;2023-04-06T04:06:48;98728.31;;;4.47;100.00
7966;BME280;4028;43.272;26.932;2023-04-06T04:09:13;98731.59;;;4.37;100.00
7966;BME280;4028;43.272;26.932;2023-04-06T04:11:39;98735.34;;;4.46;100.00
7966;BME280;4028;43.272;26.932;2023-04-06T04:14:04;98733.25;;;4.27;100.00
7966;BME280;4028;43.272;26.932;2023-04-06T04:16:30;98735.09;;;4.14;100.00
7966;BME280;4028;43.272;26.932;2023-04-06T04:18:55;98731.41;;;4.16;100.00
7966;BME280;4028;43.272;26.932;2023-04-06T04:21:21;98735.50;;;4.21;100.00
7966;BME280;4028;43.272;26.932;2023-04-06T04:23:46;98738.69;;;4.24;100.00
7966;BME280;4028;43.272;26.932;2023-04-06T04:26:12;98727.38;;;4.24;100.00
7966;BME280;4028;43.272;26.932;2023-04-06T04:28:37;98730.13;;;4.22;100.00
7966;BME280;4028;43.272;26.932;2023-04-06T04:31:03;98733.47;;;4.24;100.00
7966;BME280;4028;43.272;26.932;2023-04-06T04:33:28;98730.75;;;4.26;100.00
7966;BME280;4028;43.272;26.932;2023-04-06T04:35:54;98726.00;;;4.31;100.00
7966;BME280;4028;43.272;26.932;2023-04-06T04:38:19;98728.66;;;4.42;100.00
7966;BME280;4028;43.272;26.932;2023-04-06T04:40:45;98735.06;;;4.38;100.00
7966;BME280;4028;43.272;26.932;2023-04-06T04:43:10;98726.56;;;4.23;100.00
7966;BME280;4028;43.272;26.932;2023-04-06T04:45:36;98727.06;;;4.39;100.00
7966;BME280;4028;43.272;26.932;2023-04-06T04:48:01;98725.53;;;4.37;100.00
7966;BME280;4028;43.272;26.932;2023-04-06T04:50:27;98728.63;;;4.31;100.00
7966;BME280;4028;43.272;26.932;2023-04-06T04:52:52;98718.56;;;4.25;100.00
7966;BME280;4028;43.272;26.932;2023-04-06T04:55:18;98715.56;;;4.42;100.00
7966;BME280;4028;43.272;26.932;2023-04-06T04:57:43;98717.91;;;4.34;100.00
7966;BME280;4028;43.272;26.932;2023-04-06T05:00:09;98714.09;;;4.38;100.00
7966;BME280;4028;43.272;26.932;2023-04-06T05:02:35;98715.75;;;4.39;100.00
7966;BME280;4028;43.272;26.932;2023-04-06T05:05:00;98715.69;;;4.40;100.00
7966;BME280;4028;43.272;26.932;2023-04-06T05:07:26;98722.38;;;4.56;100.00
7966;BME280;4028;43.272;26.932;2023-04-06T05:09:51;98718.19;;;4.64;100.00
7966;BME280;4028;43.272;26.932;2023-04-06T05:12:18;98729.44;;;4.78;100.00
7966;BME280;4028;43.272;26.932;2023-04-06T05:14:44;98724.66;;;4.72;100.00
7966;BME280;4028;43.272;26.932;2023-04-06T05:17:09;98719.66;;;4.80;100.00
7966;BME280;4028;43.272;26.932;2023-04-06T05:19:35;98707.03;;;4.85;100.00
7966;BME280;4028;43.272;26.932;2023-04-06T05:22:01;98716.56;;;4.86;100.00
7966;BME280;4028;43.272;26.932;2023-04-06T05:24:26;98726.13;;;4.87;100.00
7966;BME280;4028;43.272;26.932;2023-04-06T05:26:52;98726.94;;;4.87;100.00
7966;BME280;4028;43.272;26.932;2023-04-06T05:29:18;98722.53;;;4.99;100.00
7966;BME280;4028;43.272;26.932;2023-04-06T05:31:43;98722.06;;;4.94;100.00
7966;BME280;4028;43.272;26.932;2023-04-06T05:34:09;98720.50;;;5.03;100.00
7966;BME280;4028;43.272;26.932;2023-04-06T05:36:35;98716.22;;;5.13;100.00
7966;BME280;4028;43.272;26.932;2023-04-06T05:39:01;98706.91;;;5.20;100.00
7966;BME280;4028;43.272;26.932;2023-04-06T05:41:27;98712.97;;;5.20;100.00
7966;BME280;4028;43.272;26.932;2023-04-06T05:43:52;98697.84;;;5.24;100.00
7966;BME280;4028;43.272;26.932;2023-04-06T05:46:18;98711.41;;;5.40;100.00
7966;BME280;4028;43.272;26.932;2023-04-06T05:48:43;98714.66;;;5.33;100.00
7966;BME280;4028;43.272;26.932;2023-04-06T05:51:10;98695.78;;;5.50;100.00
7966;BME280;4028;43.272;26.932;2023-04-06T05:53:35;98702.91;;;5.59;100.00
7966;BME280;4028;43.272;26.932;2023-04-06T05:56:02;98689.44;;;5.64;100.00
7966;BME280;4028;43.272;26.932;2023-04-06T05:58:28;98697.41;;;5.62;100.00
7966;BME280;4028;43.272;26.932;2023-04-06T06:01:00;98683.03;;;5.45;100.00
7966;BME280;4028;43.272;26.932;2023-04-06T06:03:26;98689.72;;;5.38;100.00
7966;BME280;4028;43.272;26.932;2023-04-06T06:05:52;98676.94;;;5.45;100.00
7966;BME280;4028;43.272;26.932;2023-04-06T06:08:17;98682.22;;;5.77;100.00
7966;BME280;4028;43.272;26.932;2023-04-06T06:10:43;98681.72;;;5.94;100.00
7966;BME280;4028;43.272;26.932;2023-04-06T06:13:09;98673.78;;;5.73;100.00
7966;BME280;4028;43.272;26.932;2023-04-06T06:15:34;98675.44;;;5.74;100.00
7966;BME280;4028;43.272;26.932;2023-04-06T06:18:00;98677.53;;;5.92;100.00
7966;BME280;4028;43.272;26.932;2023-04-06T06:20:26;98653.75;;;5.93;100.00
7966;BME280;4028;43.272;26.932;2023-04-06T06:23:01;98662.59;;;6.24;100.00
7966;BME280;4028;43.272;26.932;2023-04-06T06:25:26;98671.75;;;6.09;100.00
7966;BME280;4028;43.272;26.932;2023-04-06T06:27:52;98668.22;;;5.99;100.00
7966;BME280;4028;43.272;26.932;2023-04-06T06:30:17;98641.41;;;5.73;100.00
7966;BME280;4028;43.272;26.932;2023-04-06T06:32:43;98671.25;;;5.72;100.00
7966;BME280;4028;43.272;26.932;2023-04-06T06:35:09;98662.38;;;5.84;100.00
7966;BME280;4028;43.272;26.932;2023-04-06T06:37:34;98673.78;;;5.62;100.00
7966;BME280;4028;43.272;26.932;2023-04-06T06:40:00;98677.31;;;5.72;100.00
7966;BME280;4028;43.272;26.932;2023-04-06T06:42:25;98669.75;;;5.47;100.00
7966;BME280;4028;43.272;26.932;2023-04-06T06:44:51;98670.72;;;5.46;100.00
7966;BME280;4028;43.272;26.932;2023-04-06T06:47:17;98668.53;;;5.73;100.00
7966;BME280;4028;43.272;26.932;2023-04-06T06:49:43;98667.94;;;5.70;100.00
7966;BME280;4028;43.272;26.932;2023-04-06T06:52:08;98665.44;;;5.68;100.00
7966;BME280;4028;43.272;26.932;2023-04-06T06:54:34;98668.88;;;5.69;100.00
7966;BME280;4028;43.272;26.932;2023-04-06T06:56:59;98664.00;;;5.64;100.00
7966;BME280;4028;43.272;26.932;2023-04-06T06:59:25;98667.66;;;5.73;100.00
7966;BME280;4028;43.272;26.932;2023-04-06T07:01:51;98671.34;;;5.82;100.00
7966;BME280;4028;43.272;26.932;2023-04-06T07:04:16;98664.66;;;5.89;100.00
7966;BME280;4028;43.272;26.932;2023-04-06T07:06:42;98671.78;;;5.98;100.00
7966;BME280;4028;43.272;26.932;2023-04-06T07:09:07;98673.09;;;5.92;100.00
7966;BME280;4028;43.272;26.932;2023-04-06T07:11:33;98670.25;;;5.84;100.00
7966;BME280;4028;43.272;26.932;2023-04-06T07:13:58;98661.72;;;6.03;100.00
7966;BME280;4028;43.272;26.932;2023-04-06T07:16:24;98663.47;;;5.82;100.00
7966;BME280;4028;43.272;26.932;2023-04-06T07:18:50;98663.66;;;6.01;100.00
7966;BME280;4028;43.272;26.932;2023-04-06T07:21:16;98677.56;;;6.13;100.00
7966;BME280;4028;43.272;26.932;2023-04-06T07:23:41;98684.81;;;6.41;100.00
7966;BME280;4028;43.272;26.932;2023-04-06T07:26:07;98682.63;;;6.67;100.00
7966;BME280;4028;43.272;26.932;2023-04-06T07:28:32;98679.09;;;6.57;100.00
7966;BME280;4028;43.272;26.932;2023-04-06T07:30:58;98676.78;;;6.64;100.00
7966;BME280;4028;43.272;26.932;2023-04-06T07:33:23;98681.44;;;6.60;100.00
7966;BME280;4028;43.272;26.932;2023-04-06T07:35:49;98690.50;;;6.67;100.00
7966;BME280;4028;43.272;26.932;2023-04-06T07:38:14;98694.72;;;6.59;100.00
7966;BME280;4028;43.272;26.932;2023-04-06T07:40:40;98685.78;;;6.61;100.00
7966;BME280;4028;43.272;26.932;2023-04-06T07:43:05;98689.72;;;6.14;100.00
7966;BME280;4028;43.272;26.932;2023-04-06T07:45:31;98690.31;;;6.17;100.00
7966;BME280;4028;43.272;26.932;2023-04-06T07:47:56;98695.69;;;6.16;100.00
7966;BME280;4028;43.272;26.932;2023-04-06T07:50:22;98699.03;;;6.18;100.00
7966;BME280;4028;43.272;26.932;2023-04-06T07:52:48;98692.38;;;6.35;100.00
7966;BME280;4028;43.272;26.932;2023-04-06T07:55:13;98688.47;;;6.50;100.00
7966;BME280;4028;43.272;26.932;2023-04-06T07:57:39;98701.03;;;6.25;100.00
7966;BME280;4028;43.272;26.932;2023-04-06T08:00:05;98693.97;;;6.26;100.00
7966;BME280;4028;43.272;26.932;2023-04-06T08:02:33;98683.63;;;6.13;100.00
7966;BME280;4028;43.272;26.932;2023-04-06T08:04:59;98643.22;;;6.05;100.00
7966;BME280;4028;43.272;26.932;2023-04-06T08:07:25;98692.03;;;6.70;100.00
7966;BME280;4028;43.272;26.932;2023-04-06T08:09:51;98684.53;;;6.96;100.00
7966;BME280;4028;43.272;26.932;2023-04-06T08:12:17;98693.47;;;6.84;100.00
7966;BME280;4028;43.272;26.932;2023-04-06T08:14:42;98692.13;;;6.89;100.00
7966;BME280;4028;43.272;26.932;2023-04-06T08:17:08;98689.53;;;6.99;100.00
7966;BME280;4028;43.272;26.932;2023-04-06T08:19:33;98678.84;;;7.31;100.00
7966;BME280;4028;43.272;26.932;2023-04-06T08:21:59;98674.75;;;7.48;100.00
7966;BME280;4028;43.272;26.932;2023-04-06T08:24:24;98676.28;;;7.60;100.00
7966;BME280;4028;43.272;26.932;2023-04-06T08:26:50;98674.03;;;7.46;100.00
7966;BME280;4028;43.272;26.932;2023-04-06T08:29:16;98667.50;;;7.40;100.00
7966;BME280;4028;43.272;26.932;2023-04-06T08:31:42;98672.59;;;6.82;100.00
7966;BME280;4028;43.272;26.932;2023-04-06T08:34:08;98675.84;;;6.74;100.00
7966;BME280;4028;43.272;26.932;2023-04-06T08:36:33;98667.88;;;6.86;100.00
7966;BME280;4028;43.272;26.932;2023-04-06T08:39:00;98670.00;;;6.92;100.00
7966;BME280;4028;43.272;26.932;2023-04-06T08:41:26;98668.78;;;7.06;100.00
7966;BME280;4028;43.272;26.932;2023-04-06T08:44:00;98680.09;;;7.27;100.00
7966;BME280;4028;43.272;26.932;2023-04-06T08:46:26;98646.47;;;7.00;100.00
7966;BME280;4028;43.272;26.932;2023-04-06T08:48:56;98662.97;;;7.02;100.00
7966;BME280;4028;43.272;26.932;2023-04-06T08:51:26;98667.13;;;7.04;100.00
7966;BME280;4028;43.272;26.932;2023-04-06T08:53:53;98665.66;;;7.21;100.00
7966;BME280;4028;43.272;26.932;2023-04-06T08:56:22;98664.84;;;6.90;100.00
7966;BME280;4028;43.272;26.932;2023-04-06T08:58:48;98666.97;;;6.96;100.00
7966;BME280;4028;43.272;26.932;2023-04-06T09:01:17;98666.97;;;7.06;100.00
7966;BME280;4028;43.272;26.932;2023-04-06T09:03:44;98646.47;;;7.00;100.00
7966;BME280;4028;43.272;26.932;2023-04-06T09:06:11;98662.19;;;7.21;100.00
7966;BME280;4028;43.272;26.932;2023-04-06T09:08:39;98659.97;;;7.16;100.00
7966;BME280;4028;43.272;26.932;2023-04-06T09:11:05;98668.72;;;7.26;100.00
7966;BME280;4028;43.272;26.932;2023-04-06T09:13:31;98667.81;;;7.37;100.00
7966;BME280;4028;43.272;26.932;2023-04-06T09:16:04;98670.34;;;7.58;100.00
7966;BME280;4028;43.272;26.932;2023-04-06T09:18:32;98678.06;;;7.50;100.00
7966;BME280;4028;43.272;26.932;2023-04-06T09:21:03;98673.06;;;7.56;100.00
7966;BME280;4028;43.272;26.932;2023-04-06T09:23:29;98679.06;;;7.59;100.00
7966;BME280;4028;43.272;26.932;2023-04-06T09:26:17;98670.03;;;7.51;100.00
7966;BME280;4028;43.272;26.932;2023-04-06T09:28:50;98667.16;;;7.64;100.00
7966;BME280;4028;43.272;26.932;2023-04-06T09:31:23;98666.97;;;7.56;100.00
7966;BME280;4028;43.272;26.932;2023-04-06T09:33:49;98669.22;;;7.70;100.00
7966;BME280;4028;43.272;26.932;2023-04-06T09:36:14;98675.03;;;7.54;100.00
7966;BME280;4028;43.272;26.932;2023-04-06T09:38:53;98679.88;;;7.59;100.00
7966;BME280;4028;43.272;26.932;2023-04-06T09:43:50;98672.41;;;7.93;100.00
7966;BME280;4028;43.272;26.932;2023-04-06T09:46:16;98678.94;;;7.89;100.00
7966;BME280;4028;43.272;26.932;2023-04-06T09:48:43;98672.13;;;7.87;100.00
7966;BME280;4028;43.272;26.932;2023-04-06T09:51:11;98681.00;;;7.76;100.00
7966;BME280;4028;43.272;26.932;2023-04-06T09:53:42;98686.97;;;7.68;100.00
7966;BME280;4028;43.272;26.932;2023-04-06T09:56:12;98677.00;;;7.91;100.00
7966;BME280;4028;43.272;26.932;2023-04-06T09:58:43;98678.53;;;7.94;100.00
7966;BME280;4028;43.272;26.932;2023-04-06T10:01:13;98676.16;;;8.29;100.00
7966;BME280;4028;43.272;26.932;2023-04-06T10:03:52;98657.31;;;8.24;100.00
7966;BME280;4028;43.272;26.932;2023-04-06T10:06:23;98671.44;;;8.23;100.00
7966;BME280;4028;43.272;26.932;2023-04-06T10:08:52;98658.09;;;8.44;100.00
7966;BME280;4028;43.272;26.932;2023-04-06T10:11:20;98669.78;;;8.89;96.11
7966;BME280;4028;43.272;26.932;2023-04-06T10:13:47;98671.47;;;8.80;97.58
7966;BME280;4028;43.272;26.932;2023-04-06T10:16:14;98669.59;;;9.00;97.62
7966;BME280;4028;43.272;26.932;2023-04-06T10:18:46;98663.16;;;9.40;86.93
7966;BME280;4028;43.272;26.932;2023-04-06T10:21:15;98674.47;;;9.32;84.79
7966;BME280;4028;43.272;26.932;2023-04-06T10:23:51;98654.34;;;9.21;83.11
7966;BME280;4028;43.272;26.932;2023-04-06T10:26:19;98661.56;;;9.29;86.38
7966;BME280;4028;43.272;26.932;2023-04-06T10:28:47;98673.06;;;9.37;82.52
7966;BME280;4028;43.272;26.932;2023-04-06T10:31:13;98665.59;;;9.51;78.81
7966;BME280;4028;43.272;26.932;2023-04-06T10:33:39;98671.84;;;9.50;82.19
7966;BME280;4028;43.272;26.932;2023-04-06T10:36:10;98654.03;;;9.34;79.15
7966;BME280;4028;43.272;26.932;2023-04-06T10:38:38;98670.50;;;9.18;84.03
7966;BME280;4028;43.272;26.932;2023-04-06T10:41:05;98672.63;;;9.05;86.33
7966;BME280;4028;43.272;26.932;2023-04-06T10:43:36;98675.59;;;9.02;87.07
7966;BME280;4028;43.272;26.932;2023-04-06T10:46:02;98662.41;;;8.92;83.66
7966;BME280;4028;43.272;26.932;2023-04-06T10:48:39;98659.66;;;8.47;94.39
7966;BME280;4028;43.272;26.932;2023-04-06T10:51:28;98670.31;;;8.55;96.61
7966;BME280;4028;43.272;26.932;2023-04-06T10:53:55;98663.72;;;8.78;94.31
7966;BME280;4028;43.272;26.932;2023-04-06T10:56:23;98664.59;;;9.06;84.24
7966;BME280;4028;43.272;26.932;2023-04-06T10:58:51;98658.41;;;8.88;85.81
7966;BME280;4028;43.272;26.932;2023-04-06T11:01:22;98651.78;;;9.11;84.39
7966;BME280;4028;43.272;26.932;2023-04-06T11:03:53;98649.13;;;9.39;78.40
7966;BME280;4028;43.272;26.932;2023-04-06T11:08:45;98652.75;;;9.56;74.53
7966;BME280;4028;43.272;26.932;2023-04-06T11:11:13;98651.53;;;9.32;77.70
7966;BME280;4028;43.272;26.932;2023-04-06T11:13:51;98642.97;;;9.48;75.48
7966;BME280;4028;43.272;26.932;2023-04-06T11:16:19;98650.72;;;9.32;78.90
7966;BME280;4028;43.272;26.932;2023-04-06T11:18:56;98643.25;;;9.45;77.89
7966;BME280;4028;43.272;26.932;2023-04-06T11:21:40;98646.34;;;9.76;77.31
7966;BME280;4028;43.272;26.932;2023-04-06T11:29:15;98630.06;;;10.43;73.41
7966;BME280;4028;43.272;26.932;2023-04-06T11:31:46;98620.78;;;10.64;67.68
7966;BME280;4028;43.272;26.932;2023-04-06T11:34:17;98617.06;;;10.75;65.72
7966;BME280;4028;43.272;26.932;2023-04-06T11:36:44;98621.47;;;11.01;65.33
7966;BME280;4028;43.272;26.932;2023-04-06T11:39:12;98616.72;;;11.12;63.42
7966;BME280;4028;43.272;26.932;2023-04-06T11:41:37;98619.66;;;10.67;62.76
7966;BME280;4028;43.272;26.932;2023-04-06T11:44:03;98622.22;;;10.59;64.81
7966;BME280;4028;43.272;26.932;2023-04-06T11:46:28;98622.03;;;10.78;65.20
7966;BME280;4028;43.272;26.932;2023-04-06T11:48:58;98633.72;;;10.67;64.26
7966;BME280;4028;43.272;26.932;2023-04-06T11:51:25;98620.72;;;10.82;64.81
7966;BME280;4028;43.272;26.932;2023-04-06T11:53:54;98623.44;;;10.99;63.02
7966;BME280;4028;43.272;26.932;2023-04-06T11:56:28;98585.50;;;10.90;62.01
7966;BME280;4028;43.272;26.932;2023-04-06T11:58:58;98603.13;;;11.07;61.54
7966;BME280;4028;43.272;26.932;2023-04-06T12:01:25;98628.38;;;10.93;61.40
7966;BME280;4028;43.272;26.932;2023-04-06T12:03:52;98626.50;;;10.52;62.37
7966;BME280;4028;43.272;26.932;2023-04-06T12:06:17;98619.66;;;10.41;64.63
7966;BME280;4028;43.272;26.932;2023-04-06T12:08:43;98610.22;;;10.38;63.28
7966;BME280;4028;43.272;26.932;2023-04-06T12:11:10;98604.13;;;10.72;63.26
7966;BME280;4028;43.272;26.932;2023-04-06T12:13:36;98606.09;;;11.04;62.23
7966;BME280;4028;43.272;26.932;2023-04-06T12:16:01;98615.97;;;11.44;61.08
7966;BME280;4028;43.272;26.932;2023-04-06T12:18:27;98602.75;;;11.77;59.91
7966;BME280;4028;43.272;26.932;2023-04-06T12:20:52;98606.53;;;11.50;57.22
7966;BME280;4028;43.272;26.932;2023-04-06T12:23:19;98592.16;;;11.77;57.37
7966;BME280;4028;43.272;26.932;2023-04-06T12:25:44;98591.38;;;12.01;56.62
7966;BME280;4028;43.272;26.932;2023-04-06T12:28:10;98599.13;;;12.43;54.59
7966;BME280;4028;43.272;26.932;2023-04-06T12:30:35;98571.16;;;11.92;54.45
7966;BME280;4028;43.272;26.932;2023-04-06T12:33:01;98590.22;;;11.87;56.10
7966;BME280;4028;43.272;26.932;2023-04-06T12:35:26;98577.75;;;12.45;53.49
7966;BME280;4028;43.272;26.932;2023-04-06T12:37:52;98566.81;;;12.40;53.42
7966;BME280;4028;43.272;26.932;2023-04-06T12:40:18;98584.91;;;12.84;53.16
7966;BME280;4028;43.272;26.932;2023-04-06T12:42:43;98598.63;;;12.48;53.19
7966;BME280;4028;43.272;26.932;2023-04-06T12:45:11;98594.84;;;12.18;53.08
7966;BME280;4028;43.272;26.932;2023-04-06T12:47:36;98585.06;;;12.35;54.21
7966;BME280;4028;43.272;26.932;2023-04-06T12:50:06;98595.00;;;12.49;52.32
7966;BME280;4028;43.272;26.932;2023-04-06T12:52:32;98600.34;;;12.08;52.52
7966;BME280;4028;43.272;26.932;2023-04-06T12:55:00;98596.31;;;11.80;53.41
7966;BME280;4028;43.272;26.932;2023-04-06T12:57:26;98602.50;;;11.88;53.22
7966;BME280;4028;43.272;26.932;2023-04-06T12:59:52;98597.31;;;11.70;53.44
7966;BME280;4028;43.272;26.932;2023-04-06T13:02:18;98598.81;;;11.73;54.00
7966;BME280;4028;43.272;26.932;2023-04-06T13:04:45;98596.19;;;11.06;54.90
7966;BME280;4028;43.272;26.932;2023-04-06T13:07:11;98596.41;;;11.29;55.03
7966;BME280;4028;43.272;26.932;2023-04-06T13:09:36;98588.91;;;11.08;54.42
7966;BME280;4028;43.272;26.932;2023-04-06T13:12:02;98590.50;;;10.93;54.94
7966;BME280;4028;43.272;26.932;2023-04-06T13:14:28;98583.91;;;10.97;55.07
7966;BME280;4028;43.272;26.932;2023-04-06T13:16:53;98581.09;;;10.99;55.54
7966;BME280;4028;43.272;26.932;2023-04-06T13:19:19;98587.50;;;11.38;54.27